Time;durP1;ratioP1;P1;durP2;ratioP2;P2;SDS_P1;SDS_P2;PMS_P1;PMS_P2;Temp;Humidity;BMP_temperature;BMP_pressure;BME280_temperature;BME280_humidity;BME280_pressure;Samples;Min_cycle;Max_cycle;Signal;HPM_P1;HPM_P2
2023/09/20 00:00:29;;;;;;;18.60;4.18;;;18.00;99.90;;;;;;5093789;28;20489;-64
2023/09/20 00:02:55;;;;;;;23.15;5.22;;;18.00;99.90;;;;;;5094746;28;20043;-65
2023/09/20 00:05:21;;;;;;;23.52;6.38;;;18.10;99.90;;;;;;5092534;28;20043;-64
2023/09/20 00:07:50;;;;;;;29.13;6.38;;;18.20;99.90;;;;;;5091405;28;20040;-65
2023/09/20 00:10:18;;;;;;;31.63;7.15;;;18.20;99.90;;;;;;5110099;28;20012;-65
2023/09/20 00:12:44;;;;;;;25.23;5.53;;;18.20;99.90;;;;;;5093284;28;20031;-65
2023/09/20 00:15:10;;;;;;;26.52;5.57;;;18.20;99.90;;;;;;5103709;28;20547;-65
2023/09/20 00:17:36;;;;;;;23.50;5.63;;;18.20;99.90;;;;;;5099451;28;20479;-65
2023/09/20 00:20:13;;;;;;;31.17;6.40;;;18.30;99.90;;;;;;5110087;28;20054;-65
2023/09/20 00:22:45;;;;;;;25.80;7.32;;;18.30;99.90;;;;;;5088522;28;20028;-65
2023/09/20 00:25:13;;;;;;;27.85;7.88;;;18.30;99.90;;;;;;5094777;28;20379;-65
2023/09/20 00:27:40;;;;;;;25.25;5.93;;;18.30;99.90;;;;;;5107572;28;20032;-65
2023/09/20 00:30:10;;;;;;;25.27;6.80;;;18.30;99.90;;;;;;5096526;28;20028;-66
2023/09/20 00:32:39;;;;;;;24.92;5.78;;;18.30;99.90;;;;;;5107960;28;20384;-66
2023/09/20 00:35:07;;;;;;;22.98;6.13;;;18.30;99.90;;;;;;5102864;28;20074;-64
2023/09/20 00:37:32;;;;;;;20.33;5.75;;;18.30;99.90;;;;;;5099449;28;20479;-65
2023/09/20 00:39:58;;;;;;;26.30;6.53;;;18.30;99.90;;;;;;5085865;28;20139;-66
2023/09/20 00:42:23;;;;;;;19.50;4.53;;;18.30;99.90;;;;;;5108934;28;20474;-66
2023/09/20 00:44:49;;;;;;;20.88;5.35;;;18.30;99.90;;;;;;5100826;28;20039;-65
2023/09/20 00:47:14;;;;;;;22.75;6.63;;;18.30;99.90;;;;;;5113537;28;20043;-66
2023/09/20 00:49:45;;;;;;;22.23;5.53;;;18.30;99.90;;;;;;5100297;28;20075;-64
2023/09/20 00:52:13;;;;;;;24.17;6.27;;;18.30;99.90;;;;;;5114012;28;20457;-66
2023/09/20 00:54:40;;;;;;;19.67;4.65;;;18.30;99.90;;;;;;5103156;28;20042;-64
2023/09/20 00:57:07;;;;;;;17.20;5.85;;;18.30;99.90;;;;;;5114166;28;20032;-66
2023/09/20 00:59:33;;;;;;;20.25;5.78;;;18.20;99.90;;;;;;5103725;28;20030;-65
2023/09/20 01:02:00;;;;;;;22.60;6.88;;;18.10;99.90;;;;;;5113924;28;20019;-65
2023/09/20 01:04:28;;;;;;;19.55;5.82;;;18.00;99.90;;;;;;5101351;28;20020;-64
2023/09/20 01:06:54;;;;;;;21.27;6.40;;;18.00;99.90;;;;;;5109192;28;20044;-65
2023/09/20 01:09:22;;;;;;;23.52;6.43;;;17.90;99.90;;;;;;5108491;28;20102;-65
2023/09/20 01:11:48;;;;;;;22.77;6.30;;;17.90;99.90;;;;;;5101431;28;20530;-65
2023/09/20 01:14:14;;;;;;;21.10;6.05;;;17.80;99.90;;;;;;5113515;28;20035;-64
2023/09/20 01:16:39;;;;;;;25.13;5.85;;;17.90;99.90;;;;;;5103334;28;20436;-66
2023/09/20 01:19:06;;;;;;;20.67;5.60;;;17.80;99.90;;;;;;5107090;28;20028;-65
2023/09/20 01:21:39;;;;;;;22.50;5.40;;;17.70;99.90;;;;;;5110276;28;20027;-66
2023/09/20 01:24:05;;;;;;;18.27;5.97;;;17.80;99.90;;;;;;5095123;28;20119;-65
2023/09/20 01:26:33;;;;;;;20.23;5.18;;;17.70;99.90;;;;;;5111999;28;20020;-65
2023/09/20 01:28:58;;;;;;;17.23;5.28;;;17.70;99.90;;;;;;5105216;28;20027;-66
2023/09/20 01:31:24;;;;;;;16.15;5.43;;;17.80;99.90;;;;;;5103521;28;20138;-66
2023/09/20 01:33:50;;;;;;;21.08;5.63;;;17.70;99.90;;;;;;5112684;28;20036;-66
2023/09/20 01:36:16;;;;;;;23.02;6.00;;;17.70;99.90;;;;;;5099898;28;20028;-65
2023/09/20 01:38:42;;;;;;;18.48;5.10;;;17.70;99.90;;;;;;5109911;28;20023;-66
2023/09/20 01:41:08;;;;;;;21.70;5.22;;;17.70;99.90;;;;;;5112926;28;20027;-65
2023/09/20 01:43:36;;;;;;;18.25;5.25;;;17.70;99.90;;;;;;5088816;28;20380;-65
2023/09/20 01:46:03;;;;;;;16.85;5.72;;;17.70;99.90;;;;;;5110287;28;20059;-65
2023/09/20 01:48:28;;;;;;;18.98;6.10;;;17.70;99.90;;;;;;5100891;28;20051;-65
2023/09/20 01:50:54;;;;;;;15.73;5.25;;;17.70;99.90;;;;;;5111964;28;20086;-66
2023/09/20 01:53:19;;;;;;;17.58;5.63;;;17.70;99.90;;;;;;5104304;28;20119;-65
2023/09/20 01:55:45;;;;;;;18.60;5.53;;;17.70;99.90;;;;;;5109821;28;20031;-65
2023/09/20 01:58:14;;;;;;;19.35;5.43;;;17.70;99.90;;;;;;5112876;28;20471;-65
2023/09/20 02:00:42;;;;;;;17.13;5.47;;;17.70;99.90;;;;;;5102054;28;20119;-65
2023/09/20 02:03:14;;;;;;;19.73;5.78;;;17.70;99.90;;;;;;5106068;28;20103;-65
2023/09/20 02:05:40;;;;;;;21.67;6.00;;;17.70;99.90;;;;;;5098750;28;20504;-66
2023/09/20 02:08:08;;;;;;;19.98;5.43;;;17.70;99.90;;;;;;5112429;28;20020;-65
2023/09/20 02:10:36;;;;;;;21.55;5.78;;;17.60;99.90;;;;;;5101025;28;20020;-66
2023/09/20 02:13:03;;;;;;;22.67;5.32;;;17.60;99.90;;;;;;5106525;28;20084;-65
2023/09/20 02:15:31;;;;;;;16.05;5.47;;;17.50;99.90;;;;;;5109098;28;20028;-66
2023/09/20 02:17:57;;;;;;;15.95;4.97;;;17.50;99.90;;;;;;5098744;27;20177;-65
2023/09/20 02:20:24;;;;;;;21.48;6.65;;;17.50;99.90;;;;;;5111613;28;20099;-65
2023/09/20 02:22:55;;;;;;;25.35;8.90;;;17.60;99.90;;;;;;5103497;28;20028;-65
2023/09/20 02:25:22;;;;;;;19.95;6.55;;;17.60;99.90;;;;;;5103908;28;20017;-65
2023/09/20 02:27:49;;;;;;;22.10;5.45;;;17.60;99.90;;;;;;5111210;28;20474;-65
2023/09/20 02:30:19;;;;;;;16.52;5.00;;;17.60;99.90;;;;;;5098755;28;20119;-65
2023/09/20 02:32:48;;;;;;;15.50;5.00;;;17.60;99.90;;;;;;5108197;28;20024;-65
2023/09/20 02:35:16;;;;;;;14.45;5.30;;;17.60;99.90;;;;;;5106248;28;20059;-64
2023/09/20 02:37:41;;;;;;;15.90;5.03;;;17.60;99.90;;;;;;5095644;28;20472;-65
2023/09/20 02:40:07;;;;;;;16.10;4.85;;;17.50;99.90;;;;;;5112017;28;20039;-65
2023/09/20 02:42:53;;;;;;;16.65;5.65;;;17.60;99.90;;;;;;5100359;28;20020;-64
2023/09/20 02:45:20;;;;;;;15.02;4.70;;;17.50;99.90;;;;;;5103383;28;20097;-65
2023/09/20 02:47:46;;;;;;;18.17;4.53;;;17.50;99.90;;;;;;5110225;28;20486;-65
2023/09/20 02:50:16;;;;;;;14.23;4.43;;;17.50;99.90;;;;;;5098394;28;20094;-65
2023/09/20 02:52:44;;;;;;;14.80;4.72;;;17.50;99.90;;;;;;5108379;28;20507;-65
2023/09/20 02:55:12;;;;;;;19.17;5.75;;;17.50;99.90;;;;;;5105470;28;20085;-65
2023/09/20 02:57:39;;;;;;;14.23;4.57;;;17.60;99.90;;;;;;5111895;28;20471;-65
2023/09/20 03:00:15;;;;;;;15.38;4.82;;;17.60;99.90;;;;;;5097899;27;20035;-65
2023/09/20 03:03:01;;;;;;;13.02;3.92;;;17.60;99.90;;;;;;5108665;28;20103;-65
2023/09/20 03:05:29;;;;;;;17.80;4.93;;;17.70;99.90;;;;;;5107816;28;20057;-64
2023/09/20 03:07:56;;;;;;;17.92;4.28;;;17.70;99.90;;;;;;5098011;28;20043;-65
2023/09/20 03:10:22;;;;;;;15.35;4.47;;;17.80;99.90;;;;;;5110763;28;20028;-65
2023/09/20 03:12:52;;;;;;;17.70;4.38;;;17.70;99.90;;;;;;5101397;28;20038;-65
2023/09/20 03:15:23;;;;;;;18.05;5.32;;;17.80;99.90;;;;;;5103133;27;20040;-65
2023/09/20 03:17:54;;;;;;;15.50;4.83;;;17.80;99.90;;;;;;5110487;28;20031;-64
2023/09/20 03:20:23;;;;;;;15.20;4.55;;;17.80;99.90;;;;;;5097597;28;20263;-64
2023/09/20 03:22:51;;;;;;;15.40;4.97;;;17.80;99.90;;;;;;5106676;28;20077;-65
2023/09/20 03:25:19;;;;;;;16.35;4.50;;;17.80;99.90;;;;;;5105783;28;20028;-65
2023/09/20 03:27:45;;;;;;;18.60;5.07;;;17.80;99.90;;;;;;5099375;28;20070;-65
2023/09/20 03:30:13;;;;;;;16.77;5.22;;;17.80;99.90;;;;;;5098620;28;20028;-65
2023/09/20 03:32:42;;;;;;;15.77;4.53;;;17.80;99.90;;;;;;5092354;28;20024;-66
2023/09/20 03:35:10;;;;;;;18.77;4.97;;;17.80;99.90;;;;;;5104025;28;20090;-66
2023/09/20 03:37:38;;;;;;;15.10;4.53;;;17.80;99.90;;;;;;5107897;28;20047;-66
2023/09/20 03:40:06;;;;;;;16.38;4.45;;;17.80;99.90;;;;;;5111063;28;20379;-66
2023/09/20 03:42:33;;;;;;;13.25;4.28;;;17.80;99.90;;;;;;5099592;28;20020;-66
2023/09/20 03:44:58;;;;;;;14.55;4.35;;;17.80;99.90;;;;;;5105501;28;20460;-65
2023/09/20 03:47:28;;;;;;;13.13;4.50;;;17.80;99.90;;;;;;5099472;28;20031;-66
2023/09/20 03:49:53;;;;;;;18.73;4.85;;;17.80;99.90;;;;;;5109317;28;20055;-65
2023/09/20 03:52:19;;;;;;;14.13;4.95;;;17.80;99.90;;;;;;5097119;28;20015;-66
2023/09/20 03:54:51;;;;;;;16.55;4.25;;;17.80;99.90;;;;;;5105646;28;20028;-65
2023/09/20 03:57:19;;;;;;;12.90;4.07;;;17.80;99.90;;;;;;5105429;28;20032;-66
2023/09/20 03:59:47;;;;;;;16.08;4.90;;;17.70;99.90;;;;;;5098617;28;20023;-66
2023/09/20 04:02:14;;;;;;;11.45;4.35;;;17.70;99.90;;;;;;5110530;28;20031;-66
2023/09/20 04:04:40;;;;;;;18.35;4.25;;;17.70;99.90;;;;;;5100054;28;20033;-66
2023/09/20 04:07:06;;;;;;;14.13;4.72;;;17.70;99.90;;;;;;5104092;28;20081;-66
2023/09/20 04:09:32;;;;;;;17.25;4.70;;;17.70;99.90;;;;;;5107116;28;20023;-66
2023/09/20 04:11:59;;;;;;;13.20;4.53;;;17.70;99.90;;;;;;5096898;28;20392;-66
2023/09/20 04:14:25;;;;;;;17.85;5.18;;;17.70;99.90;;;;;;5109699;28;20043;-66
2023/09/20 04:16:52;;;;;;;13.15;4.40;;;17.70;99.90;;;;;;5101082;28;20020;-65
2023/09/20 04:19:21;;;;;;;13.95;4.60;;;17.70;99.90;;;;;;5113966;28;20035;-64
2023/09/20 04:21:47;;;;;;;14.38;4.30;;;17.70;99.90;;;;;;5114171;28;20024;-64
2023/09/20 04:24:13;;;;;;;15.45;4.57;;;17.70;99.90;;;;;;5113079;28;20384;-65
2023/09/20 04:26:39;;;;;;;15.23;4.38;;;17.70;99.90;;;;;;5113759;28;20023;-65
2023/09/20 04:29:05;;;;;;;14.35;4.50;;;17.70;99.90;;;;;;5114069;28;20067;-64
2023/09/20 04:31:33;;;;;;;15.00;4.30;;;17.70;99.90;;;;;;5113725;28;20440;-64
2023/09/20 04:33:59;;;;;;;15.82;4.10;;;17.70;99.90;;;;;;5113793;28;20032;-65
2023/09/20 04:36:27;;;;;;;16.90;4.57;;;17.70;99.90;;;;;;5092343;28;20453;-66
2023/09/20 04:38:53;;;;;;;12.55;4.47;;;17.70;99.90;;;;;;5073688;28;20119;-66
2023/09/20 04:41:18;;;;;;;14.20;4.57;;;17.70;99.90;;;;;;5094105;28;20495;-66
2023/09/20 04:43:44;;;;;;;13.10;3.95;;;17.70;99.90;;;;;;5089488;28;20115;-65
2023/09/20 04:46:10;;;;;;;14.25;4.88;;;17.70;99.90;;;;;;5072949;28;20392;-66
2023/09/20 04:48:38;;;;;;;18.88;5.35;;;17.80;99.90;;;;;;5073113;28;20514;-66
2023/09/20 04:51:04;;;;;;;13.32;4.03;;;17.80;99.90;;;;;;5073393;28;20051;-64
2023/09/20 04:53:29;;;;;;;13.05;4.20;;;17.80;99.90;;;;;;5073062;28;20041;-64
2023/09/20 04:55:56;;;;;;;13.98;4.57;;;17.80;99.90;;;;;;5075391;28;20020;-65
2023/09/20 04:58:21;;;;;;;15.40;4.30;;;17.90;99.90;;;;;;5092623;28;20036;-63
2023/09/20 05:00:48;;;;;;;11.50;3.78;;;17.90;99.90;;;;;;5091531;28;20105;-64
2023/09/20 05:03:15;;;;;;;9.27;3.50;;;17.90;99.90;;;;;;5093078;28;20043;-64
2023/09/20 05:05:41;;;;;;;13.77;4.10;;;17.90;99.90;;;;;;5093085;28;20135;-64
2023/09/20 05:08:08;;;;;;;12.45;4.03;;;17.90;99.90;;;;;;5092223;28;20020;-65
2023/09/20 05:10:34;;;;;;;9.70;3.90;;;17.90;99.90;;;;;;5106154;28;20028;-64
2023/09/20 05:13:00;;;;;;;12.02;4.00;;;17.90;99.90;;;;;;5113544;28;20733;-64
2023/09/20 05:15:25;;;;;;;14.30;4.47;;;17.90;99.90;;;;;;5112661;28;20035;-65
2023/09/20 05:17:51;;;;;;;16.48;5.40;;;17.90;99.90;;;;;;5097101;28;20031;-66
2023/09/20 05:20:17;;;;;;;10.48;3.45;;;17.90;99.90;;;;;;5090414;28;20372;-65
2023/09/20 05:22:42;;;;;;;11.52;4.50;;;17.90;99.90;;;;;;5079812;28;20142;-65
2023/09/20 05:25:09;;;;;;;12.48;4.13;;;17.80;99.90;;;;;;5110930;28;20375;-65
2023/09/20 05:27:36;;;;;;;13.55;4.28;;;17.80;99.90;;;;;;5113076;28;20028;-65
2023/09/20 05:30:02;;;;;;;13.52;4.05;;;17.80;99.90;;;;;;5110962;28;20022;-65
2023/09/20 05:32:27;;;;;;;13.15;4.00;;;17.80;99.90;;;;;;5113115;28;20024;-65
2023/09/20 05:34:53;;;;;;;12.45;3.55;;;17.80;99.90;;;;;;5113625;28;20031;-65
2023/09/20 05:37:18;;;;;;;10.98;3.63;;;17.80;99.90;;;;;;5117094;28;20073;-65
2023/09/20 05:39:47;;;;;;;12.65;3.95;;;17.80;99.90;;;;;;5110062;28;20032;-64
2023/09/20 05:42:17;;;;;;;16.63;5.80;;;17.80;99.90;;;;;;5096903;28;20103;-66
2023/09/20 05:44:43;;;;;;;14.93;4.55;;;17.80;99.90;;;;;;5096025;28;20419;-64
2023/09/20 05:47:09;;;;;;;10.90;3.60;;;17.90;99.90;;;;;;5095876;28;20024;-63
2023/09/20 05:49:35;;;;;;;14.90;3.85;;;17.90;99.90;;;;;;5095696;28;20087;-64
2023/09/20 05:52:02;;;;;;;12.57;3.85;;;17.80;99.90;;;;;;5096260;28;20078;-65
2023/09/20 05:54:28;;;;;;;10.15;3.67;;;17.90;99.90;;;;;;5094678;28;20036;-65
2023/09/20 05:57:22;;;;;;;14.30;4.88;;;17.80;99.90;;;;;;5094852;28;20027;-66
2023/09/20 05:59:47;;;;;;;14.07;4.55;;;17.90;99.90;;;;;;5093945;28;20483;-65
2023/09/20 06:02:13;;;;;;;14.80;4.38;;;17.90;99.90;;;;;;5093153;28;20052;-65
2023/09/20 06:04:39;;;;;;;14.85;4.63;;;17.90;99.90;;;;;;5094855;28;20020;-65
2023/09/20 06:07:04;;;;;;;14.70;4.85;;;17.90;99.90;;;;;;5095349;28;20456;-64
2023/09/20 06:09:31;;;;;;;14.60;4.47;;;17.90;99.90;;;;;;5094665;28;20032;-65
2023/09/20 06:11:56;;;;;;;10.50;4.72;;;18.00;99.90;;;;;;5094640;28;20059;-65
2023/09/20 06:14:22;;;;;;;10.45;4.00;;;18.00;99.90;;;;;;5095444;28;20542;-65
2023/09/20 06:16:48;;;;;;;11.95;4.15;;;18.00;99.90;;;;;;5100635;28;20376;-65
2023/09/20 06:19:16;;;;;;;15.75;5.28;;;18.00;99.90;;;;;;5100179;28;20089;-65
2023/09/20 06:21:43;;;;;;;10.40;3.33;;;18.00;99.90;;;;;;5104579;28;20027;-64
2023/09/20 06:24:11;;;;;;;11.30;4.00;;;18.00;99.90;;;;;;5097639;28;20027;-66
2023/09/20 06:26:40;;;;;;;10.88;3.35;;;18.00;99.90;;;;;;5107427;28;20055;-65
2023/09/20 06:29:05;;;;;;;13.13;3.88;;;18.10;99.90;;;;;;5095608;28;20102;-66
2023/09/20 06:31:31;;;;;;;11.25;3.88;;;18.10;99.90;;;;;;5094012;28;20099;-65
2023/09/20 06:33:57;;;;;;;11.75;3.90;;;18.10;99.90;;;;;;5094356;28;20050;-66
2023/09/20 06:36:24;;;;;;;10.85;4.18;;;18.20;99.90;;;;;;5094085;28;20020;-66
2023/09/20 06:38:49;;;;;;;15.20;4.22;;;18.20;99.90;;;;;;5093640;28;20093;-65
2023/09/20 06:41:15;;;;;;;13.20;4.65;;;18.20;99.90;;;;;;5093428;28;20476;-66
2023/09/20 06:43:42;;;;;;;12.40;4.38;;;18.10;99.90;;;;;;5093607;28;20036;-66
2023/09/20 06:46:08;;;;;;;9.68;4.03;;;18.10;99.90;;;;;;5094330;28;20111;-64
2023/09/20 06:48:34;;;;;;;12.50;4.65;;;18.10;99.90;;;;;;5092736;28;20020;-65
2023/09/20 06:51:00;;;;;;;10.65;3.35;;;18.10;99.90;;;;;;5093019;28;20125;-65
2023/09/20 06:53:26;;;;;;;8.35;3.13;;;18.10;99.90;;;;;;5092477;28;20048;-64
2023/09/20 06:55:51;;;;;;;7.47;3.22;;;18.10;99.90;;;;;;5095006;28;20050;-65
2023/09/20 06:58:18;;;;;;;10.88;3.20;;;18.10;99.90;;;;;;5096624;28;20132;-67
2023/09/20 07:00:43;;;;;;;15.70;5.38;;;18.10;99.90;;;;;;5115466;28;20022;-65
2023/09/20 07:03:09;;;;;;;9.70;2.40;;;18.10;99.90;;;;;;5098355;28;20036;-65
2023/09/20 07:05:35;;;;;;;7.13;3.08;;;18.10;99.90;;;;;;5094819;28;20092;-65
2023/09/20 07:08:01;;;;;;;17.95;6.13;;;18.10;99.90;;;;;;5095826;28;20028;-66
2023/09/20 07:10:31;;;;;;;12.13;3.65;;;18.10;99.90;;;;;;5094275;28;20361;-66
2023/09/20 07:12:57;;;;;;;13.80;4.03;;;18.20;99.90;;;;;;5092288;28;20031;-66
2023/09/20 07:15:25;;;;;;;12.05;3.80;;;18.10;99.90;;;;;;5109755;28;20039;-66
2023/09/20 07:17:58;;;;;;;12.38;3.95;;;18.20;99.90;;;;;;5101902;28;20028;-64
2023/09/20 07:20:31;;;;;;;10.80;4.50;;;18.20;99.90;;;;;;5093567;28;20031;-64
2023/09/20 07:22:58;;;;;;;9.88;3.53;;;18.30;99.90;;;;;;5080489;28;20082;-65
2023/09/20 07:25:27;;;;;;;10.23;3.63;;;18.30;99.90;;;;;;5093834;28;20508;-66
2023/09/20 07:27:59;;;;;;;9.63;3.47;;;18.40;99.90;;;;;;5083844;28;20418;-65
2023/09/20 07:30:31;;;;;;;;;;;18.40;99.90;;;;;;5073298;28;20469;-66
2023/09/20 07:32:57;;;;;;;10.13;3.30;;;18.40;99.90;;;;;;5071742;28;19912;-65
2023/09/20 07:35:26;;;;;;;9.95;3.97;;;18.40;99.90;;;;;;5073909;28;20043;-64
2023/09/20 07:37:56;;;;;;;9.60;3.10;;;18.40;99.90;;;;;;5073287;28;20060;-65
2023/09/20 07:40:35;;;;;;;12.07;3.58;;;18.30;99.90;;;;;;5073639;28;20052;-65
2023/09/20 07:43:06;;;;;;;13.95;4.00;;;18.40;99.90;;;;;;5112625;28;20037;-66
2023/09/20 07:45:42;;;;;;;11.07;4.13;;;18.40;99.90;;;;;;5113695;28;20034;-65
2023/09/20 07:48:12;;;;;;;8.90;3.35;;;18.40;99.90;;;;;;5114447;28;20387;-66
2023/09/20 07:50:49;;;;;;;13.25;3.83;;;18.40;99.90;;;;;;5104382;28;20048;-66
2023/09/20 07:53:16;;;;;;;13.50;4.22;;;18.40;99.90;;;;;;5097981;28;20025;-65
2023/09/20 07:55:44;;;;;;;11.05;3.42;;;18.50;99.90;;;;;;5093308;28;20456;-67
2023/09/20 07:58:11;;;;;;;8.07;3.53;;;18.40;99.90;;;;;;5093855;28;20024;-65
2023/09/20 08:00:44;;;;;;;9.57;3.70;;;18.50;99.90;;;;;;5093446;28;20479;-65
2023/09/20 08:03:13;;;;;;;11.10;3.40;;;18.50;99.90;;;;;;5095700;28;20483;-66
2023/09/20 08:05:41;;;;;;;8.23;3.55;;;18.50;99.90;;;;;;5089844;28;20020;-66
2023/09/20 08:08:08;;;;;;;8.23;3.33;;;18.50;99.90;;;;;;5093571;28;20028;-66
2023/09/20 08:10:38;;;;;;;8.07;3.42;;;18.50;99.90;;;;;;5094081;28;20047;-66
2023/09/20 08:13:04;;;;;;;8.50;3.38;;;18.60;99.90;;;;;;5093105;28;20464;-65
2023/09/20 08:15:36;;;;;;;9.10;3.13;;;18.60;99.90;;;;;;5092939;28;20046;-65
2023/09/20 08:20:46;;;;;;;7.85;3.15;;;18.80;99.90;;;;;;5095715;28;20140;-66
2023/09/20 09:01:44;;;;;;;8.93;2.95;;;19.00;99.90;;;;;;5088534;28;20085;-65
2023/09/20 09:04:11;;;;;;;7.53;2.60;;;19.00;99.90;;;;;;5085290;28;20024;-66
2023/09/20 09:06:36;;;;;;;5.75;2.70;;;19.00;99.90;;;;;;5088725;28;20024;-65
2023/09/20 09:09:02;;;;;;;5.70;2.97;;;19.20;99.90;;;;;;5088906;28;20027;-67
2023/09/20 09:11:29;;;;;;;10.50;2.90;;;19.30;99.90;;;;;;5098562;28;20525;-66
2023/09/20 09:13:58;;;;;;;5.18;2.55;;;19.30;99.90;;;;;;5095365;28;20040;-65
2023/09/20 09:16:31;;;;;;;7.53;2.97;;;19.40;99.90;;;;;;5096065;28;20056;-66
2023/09/20 09:18:57;;;;;;;8.32;2.63;;;19.40;99.90;;;;;;5095964;28;20517;-68
2023/09/20 09:21:23;;;;;;;8.18;2.78;;;19.40;99.90;;;;;;5093340;28;20020;-65
2023/09/20 09:23:48;;;;;;;7.95;3.42;;;19.30;99.90;;;;;;5094079;28;20522;-67
2023/09/20 09:26:16;;;;;;;8.52;2.58;;;19.30;99.90;;;;;;5096295;28;20112;-65
2023/09/20 09:28:45;;;;;;;8.73;3.03;;;19.40;99.90;;;;;;5098207;28;20427;-65
2023/09/20 09:31:13;;;;;;;8.65;3.35;;;19.40;99.90;;;;;;5098994;28;20081;-65
2023/09/20 09:33:42;;;;;;;8.50;3.33;;;19.40;99.90;;;;;;5096559;28;20043;-65
2023/09/20 09:36:08;;;;;;;7.70;3.15;;;19.40;99.90;;;;;;5095610;28;20027;-65
2023/09/20 09:38:35;;;;;;;8.23;3.13;;;19.40;99.90;;;;;;5095688;28;20035;-65
2023/09/20 09:41:02;;;;;;;8.07;3.17;;;19.50;99.90;;;;;;5095609;28;20032;-66
2023/09/20 09:43:29;;;;;;;7.30;2.60;;;19.60;99.90;;;;;;5095657;28;20379;-64
2023/09/20 09:46:15;;;;;;;9.30;2.92;;;19.90;99.90;;;;;;5095796;28;20122;-66
2023/09/20 09:48:42;;;;;;;7.38;3.03;;;20.30;99.90;;;;;;5092653;28;20046;-65
2023/09/20 09:51:09;;;;;;;4.18;2.67;;;20.70;99.90;;;;;;5094942;28;20090;-65
2023/09/20 09:53:37;;;;;;;5.88;2.60;;;21.10;99.90;;;;;;5095496;28;20067;-65
2023/09/20 09:56:06;;;;;;;5.88;2.70;;;21.50;99.90;;;;;;5095780;28;20111;-65
2023/09/20 09:58:33;;;;;;;4.25;2.47;;;21.70;99.90;;;;;;5095560;28;20020;-66
2023/09/20 10:01:04;;;;;;;4.70;2.28;;;21.80;99.90;;;;;;5096035;28;20085;-66
2023/09/20 10:03:32;;;;;;;4.45;2.80;;;21.70;99.90;;;;;;5095343;28;20020;-65
2023/09/20 10:06:25;;;;;;;10.65;3.30;;;21.70;99.90;;;;;;5095344;28;20028;-66
2023/09/20 10:08:54;;;;;;;5.13;2.72;;;21.70;99.90;;;;;;5094034;28;20031;-65
2023/09/20 10:11:24;;;;;;;6.65;2.63;;;21.50;99.90;;;;;;5092628;28;20103;-65
2023/09/20 10:13:51;;;;;;;6.25;3.10;;;21.50;99.90;;;;;;5094032;28;20067;-66
2023/09/20 10:16:17;;;;;;;6.85;2.83;;;21.40;99.90;;;;;;5094775;28;20422;-66
2023/09/20 10:18:54;;;;;;;5.45;2.80;;;21.30;99.90;;;;;;5095197;28;20031;-65
2023/09/20 10:21:30;;;;;;;4.50;2.22;;;21.20;99.90;;;;;;5092405;28;20353;-66
2023/09/20 10:24:00;;;;;;;11.98;4.95;;;21.20;99.90;;;;;;5095151;28;20063;-66
2023/09/20 10:26:27;;;;;;;9.30;4.38;;;21.20;99.90;;;;;;5095191;28;20055;-65
2023/09/20 10:29:16;;;;;;;6.97;3.33;;;21.30;99.90;;;;;;5095220;28;20085;-66
2023/09/20 10:31:42;;;;;;;10.88;4.85;;;21.40;99.90;;;;;;5092268;28;20024;-66
2023/09/20 10:34:07;;;;;;;9.77;3.20;;;21.40;99.90;;;;;;5094788;28;20040;-66
2023/09/20 10:36:34;;;;;;;6.47;2.97;;;21.40;99.90;;;;;;5095301;28;20024;-66
2023/09/20 10:39:18;;;;;;;5.90;2.38;;;21.20;99.90;;;;;;5095237;28;20028;-64
2023/09/20 10:41:48;;;;;;;5.10;2.75;;;20.90;99.90;;;;;;5094970;28;20387;-65
2023/09/20 10:44:30;;;;;;;9.52;3.22;;;20.70;99.90;;;;;;5093585;28;20044;-65
2023/09/20 10:46:58;;;;;;;5.53;3.05;;;20.60;99.90;;;;;;5093685;28;20123;-66
2023/09/20 10:49:50;;;;;;;9.13;3.67;;;20.60;99.90;;;;;;5095016;28;20050;-66
2023/09/20 10:52:32;;;;;;;8.25;3.95;;;20.40;99.90;;;;;;5095348;28;20024;-65
2023/09/20 10:55:20;;;;;;;9.23;3.42;;;20.30;99.90;;;;;;5094863;28;20036;-65
2023/09/20 10:57:46;;;;;;;9.30;3.28;;;20.30;99.90;;;;;;5093972;28;20107;-66
2023/09/20 11:00:14;;;;;;;9.85;4.00;;;20.20;99.90;;;;;;5092689;28;20024;-68
2023/09/20 11:02:42;;;;;;;9.77;4.15;;;20.20;99.90;;;;;;5092596;28;20035;-67
2023/09/20 11:05:11;;;;;;;6.85;3.50;;;20.20;99.90;;;;;;5092806;28;20062;-67
2023/09/20 11:07:39;;;;;;;8.55;3.03;;;20.10;99.90;;;;;;5091547;28;20028;-67
2023/09/20 11:10:09;;;;;;;9.75;3.83;;;20.10;99.90;;;;;;5092678;28;20463;-66
2023/09/20 11:12:36;;;;;;;11.20;3.33;;;20.10;99.90;;;;;;5093375;28;20051;-66
2023/09/20 11:15:05;;;;;;;10.18;3.53;;;20.20;99.90;;;;;;5094344;28;20476;-66
2023/09/20 11:17:31;;;;;;;11.07;3.95;;;20.30;99.90;;;;;;5094585;28;20027;-66
2023/09/20 11:19:58;;;;;;;10.32;4.53;;;20.40;99.90;;;;;;5094075;28;20028;-66
2023/09/20 11:22:23;;;;;;;8.38;3.65;;;20.50;99.90;;;;;;5094414;28;20016;-65
2023/09/20 11:24:51;;;;;;;6.53;3.08;;;20.60;99.90;;;;;;5094306;28;20020;-67
2023/09/20 11:27:18;;;;;;;10.52;3.83;;;20.60;99.90;;;;;;5094317;28;20024;-66
2023/09/20 11:29:43;;;;;;;8.02;3.30;;;20.50;99.90;;;;;;5092888;28;20028;-66
2023/09/20 11:32:13;;;;;;;6.10;3.03;;;20.50;99.90;;;;;;5094257;28;20023;-66
2023/09/20 11:34:48;;;;;;;8.70;3.60;;;20.40;99.90;;;;;;5093745;28;20036;-66
2023/09/20 11:37:21;;;;;;;8.73;3.60;;;20.40;99.90;;;;;;5092384;28;20476;-66
2023/09/20 11:39:47;;;;;;;10.73;4.75;;;20.30;99.90;;;;;;5093942;28;20028;-66
2023/09/20 11:42:33;;;;;;;8.38;3.13;;;20.30;99.90;;;;;;5093904;28;20126;-66
2023/09/20 11:45:05;;;;;;;7.32;3.47;;;20.50;99.90;;;;;;5094055;28;20020;-65
2023/09/20 11:47:32;;;;;;;9.18;3.28;;;20.60;99.90;;;;;;5094219;28;20032;-67
2023/09/20 11:49:59;;;;;;;9.98;3.50;;;20.80;99.90;;;;;;5093890;28;20048;-67
2023/09/20 11:52:25;;;;;;;10.90;3.92;;;21.00;99.90;;;;;;5093899;28;20110;-64
2023/09/20 11:54:55;;;;;;;8.93;4.40;;;21.10;99.90;;;;;;5093701;28;20115;-67
2023/09/20 11:57:24;;;;;;;10.63;4.15;;;21.10;99.90;;;;;;5093606;28;20028;-66
2023/09/20 11:59:50;;;;;;;6.75;3.28;;;21.20;99.90;;;;;;5094133;28;20027;-66
2023/09/20 12:02:16;;;;;;;6.93;3.63;;;21.20;99.90;;;;;;5094219;28;20051;-66
2023/09/20 12:04:43;;;;;;;9.60;4.05;;;21.10;99.90;;;;;;5093520;28;20070;-66
2023/09/20 12:07:08;;;;;;;8.65;4.00;;;21.10;99.90;;;;;;5093448;28;20093;-67
2023/09/20 12:09:36;;;;;;;9.70;3.58;;;21.20;99.90;;;;;;5093176;28;20020;-67
2023/09/20 12:12:05;;;;;;;5.70;3.53;;;21.30;99.90;;;;;;5093133;28;20135;-66
2023/09/20 12:14:34;;;;;;;8.10;3.80;;;21.40;99.90;;;;;;5093547;28;20040;-68
2023/09/20 12:17:00;;;;;;;10.38;4.07;;;21.50;99.90;;;;;;5093335;28;20472;-67
2023/09/20 12:19:26;;;;;;;8.68;3.25;;;21.60;99.90;;;;;;5093206;28;20537;-66
2023/09/20 12:21:52;;;;;;;11.20;3.40;;;21.60;99.90;;;;;;5093550;28;20108;-67
2023/09/20 12:24:17;;;;;;;9.45;3.60;;;21.70;99.90;;;;;;5093551;28;20029;-67
2023/09/20 12:26:45;;;;;;;8.82;3.63;;;22.00;99.90;;;;;;5093859;28;20162;-66
2023/09/20 12:29:10;;;;;;;10.57;3.78;;;22.10;99.90;;;;;;5093827;28;20032;-67
2023/09/20 12:31:36;;;;;;;9.85;3.90;;;22.30;99.90;;;;;;5093500;28;20031;-67
2023/09/20 12:34:01;;;;;;;9.45;4.22;;;22.40;99.90;;;;;;5093361;28;20039;-67
2023/09/20 12:36:30;;;;;;;8.40;3.50;;;22.40;99.90;;;;;;5093476;28;20032;-66
2023/09/20 12:38:56;;;;;;;11.75;3.67;;;22.40;99.90;;;;;;5093416;28;20192;-66
2023/09/20 12:41:24;;;;;;;11.13;3.78;;;22.40;99.90;;;;;;5093741;28;20375;-66
2023/09/20 12:43:49;;;;;;;6.72;3.13;;;22.70;99.90;;;;;;5093337;28;20032;-66
2023/09/20 12:46:16;;;;;;;5.75;2.55;;;23.00;99.90;;;;;;5096193;28;20348;-66
2023/09/20 12:48:44;;;;;;;9.93;3.67;;;23.20;99.90;;;;;;5097618;28;20029;-66
2023/09/20 12:51:14;;;;;;;8.68;3.35;;;23.30;99.90;;;;;;5097888;28;20541;-66
2023/09/20 12:53:39;;;;;;;5.47;2.70;;;23.40;99.90;;;;;;5096924;28;20047;-65
2023/09/20 12:56:07;;;;;;;9.15;2.88;;;23.30;99.90;;;;;;5098046;28;20118;-65
2023/09/20 12:58:33;;;;;;;10.23;4.32;;;23.30;99.90;;;;;;5097421;28;20028;-65
2023/09/20 13:00:59;;;;;;;7.30;3.22;;;23.40;99.90;;;;;;5097114;28;20103;-66
2023/09/20 13:03:28;;;;;;;8.02;3.20;;;23.60;99.90;;;;;;5097299;28;20483;-67
2023/09/20 13:05:54;;;;;;;6.03;3.00;;;23.70;99.90;;;;;;5097156;28;20028;-67
2023/09/20 13:08:21;;;;;;;5.55;2.92;;;23.70;99.90;;;;;;5096711;28;20375;-66
2023/09/20 13:10:51;;;;;;;7.22;2.90;;;23.60;99.90;;;;;;5097130;28;20024;-65
2023/09/20 13:13:17;;;;;;;9.63;3.08;;;23.40;99.90;;;;;;5097289;28;20028;-66
2023/09/20 13:15:43;;;;;;;5.43;2.88;;;23.30;99.90;;;;;;5096822;28;20028;-65
2023/09/20 13:18:10;;;;;;;11.85;4.10;;;23.30;99.90;;;;;;5096974;28;20031;-66
2023/09/20 13:20:42;;;;;;;9.80;3.60;;;23.30;99.90;;;;;;5096952;28;20166;-66
2023/09/20 13:23:08;;;;;;;6.43;2.70;;;23.30;99.90;;;;;;5096870;28;20547;-68
2023/09/20 13:25:35;;;;;;;6.28;3.30;;;23.40;99.90;;;;;;5097283;28;20024;-67